sensor_id;sensor_type;location;lat;lon;timestamp;pressure;altitude;pressure_sealevel;temperature;humidity
26083;BME280;13848;49.018;12.078;2023-04-07T00:02:23;97744.09;;;3.44;56.13
26083;BME280;13848;49.018;12.078;2023-04-07T00:04:49;97732.81;;;3.34;56.57
26083;BME280;13848;49.018;12.078;2023-04-07T00:07:16;97739.84;;;3.27;56.07
26083;BME280;13848;49.018;12.078;2023-04-07T00:09:42;97737.38;;;3.17;56.74
26083;BME280;13848;49.018;12.078;2023-04-07T00:12:08;97734.56;;;3.19;57.13
26083;BME280;13848;49.018;12.078;2023-04-07T00:14:34;97737.50;;;3.24;57.11
26083;BME280;13848;49.018;12.078;2023-04-07T00:17:00;97735.16;;;3.29;56.38
26083;BME280;13848;49.018;12.078;2023-04-07T00:19:26;97735.53;;;3.26;56.96
26083;BME280;13848;49.018;12.078;2023-04-07T00:21:52;97733.19;;;3.23;56.76
26083;BME280;13848;49.018;12.078;2023-04-07T00:24:19;97735.53;;;3.18;57.40
26083;BME280;13848;49.018;12.078;2023-04-07T00:26:45;97737.94;;;3.05;57.37
26083;BME280;13848;49.018;12.078;2023-04-07T00:29:11;97740.28;;;3.00;57.73
26083;BME280;13848;49.018;12.078;2023-04-07T00:31:37;97727.47;;;2.95;57.44
26083;BME280;13848;49.018;12.078;2023-04-07T00:34:03;97731.84;;;2.96;57.33
26083;BME280;13848;49.018;12.078;2023-04-07T00:36:29;97729.81;;;2.98;57.65
26083;BME280;13848;49.018;12.078;2023-04-07T00:38:55;97727.47;;;2.95;57.16
26083;BME280;13848;49.018;12.078;2023-04-07T00:41:22;97729.31;;;2.94;57.49
26083;BME280;13848;49.018;12.078;2023-04-07T00:43:48;97725.69;;;2.87;57.50
26083;BME280;13848;49.018;12.078;2023-04-07T00:46:14;97720.72;;;2.84;57.55
26083;BME280;13848;49.018;12.078;2023-04-07T00:48:40;97726.53;;;2.88;57.97
26083;BME280;13848;49.018;12.078;2023-04-07T00:51:06;97728.22;;;2.81;57.62
26083;BME280;13848;49.018;12.078;2023-04-07T00:53:32;97720.56;;;2.78;58.37
26083;BME280;13848;49.018;12.078;2023-04-07T00:55:58;97726.44;;;2.65;57.82
26083;BME280;13848;49.018;12.078;2023-04-07T00:58:25;97715.13;;;2.63;58.12
26083;BME280;13848;49.018;12.078;2023-04-07T01:01:00;97713.63;;;2.69;58.23
26083;BME280;13848;49.018;12.078;2023-04-07T01:03:30;97720.41;;;2.71;58.72
26083;BME280;13848;49.018;12.078;2023-04-07T01:06:00;97705.78;;;2.75;57.54
26083;BME280;13848;49.018;12.078;2023-04-07T01:08:31;97711.78;;;2.69;57.79
26083;BME280;13848;49.018;12.078;2023-04-07T01:11:03;97704.34;;;2.56;59.00
26083;BME280;13848;49.018;12.078;2023-04-07T01:13:33;97701.50;;;2.58;58.97
26083;BME280;13848;49.018;12.078;2023-04-07T01:16:04;97698.00;;;2.57;58.61
26083;BME280;13848;49.018;12.078;2023-04-07T01:18:35;97694.03;;;2.53;58.92
26083;BME280;13848;49.018;12.078;2023-04-07T01:21:05;97697.38;;;2.47;59.45
26083;BME280;13848;49.018;12.078;2023-04-07T01:23:43;97694.25;;;2.44;60.27
26083;BME280;13848;49.018;12.078;2023-04-07T01:26:19;97701.06;;;2.38;60.12
26083;BME280;13848;49.018;12.078;2023-04-07T01:29:17;97692.56;;;2.43;60.28
26083;BME280;13848;49.018;12.078;2023-04-07T01:31:45;97698.22;;;2.39;59.89
26083;BME280;13848;49.018;12.078;2023-04-07T01:34:13;97703.38;;;2.41;60.30
26083;BME280;13848;49.018;12.078;2023-04-07T01:36:40;97692.22;;;2.37;60.54
26083;BME280;13848;49.018;12.078;2023-04-07T01:39:07;97691.06;;;2.32;60.13
26083;BME280;13848;49.018;12.078;2023-04-07T01:41:34;97684.28;;;2.29;60.36
26083;BME280;13848;49.018;12.078;2023-04-07T01:44:01;97691.59;;;2.27;61.13
26083;BME280;13848;49.018;12.078;2023-04-07T01:46:29;97689.09;;;2.26;60.63
26083;BME280;13848;49.018;12.078;2023-04-07T01:48:56;97689.28;;;2.24;60.09
26083;BME280;13848;49.018;12.078;2023-04-07T01:51:22;97687.94;;;2.20;59.38
26083;BME280;13848;49.018;12.078;2023-04-07T01:53:49;97690.59;;;2.28;60.39
26083;BME280;13848;49.018;12.078;2023-04-07T01:56:15;97685.09;;;2.30;60.21
26083;BME280;13848;49.018;12.078;2023-04-07T01:58:41;97682.59;;;2.36;59.87
26083;BME280;13848;49.018;12.078;2023-04-07T02:01:07;97682.63;;;2.28;60.33
26083;BME280;13848;49.018;12.078;2023-04-07T02:03:39;97687.28;;;2.18;61.06
26083;BME280;13848;49.018;12.078;2023-04-07T02:06:08;97678.81;;;2.06;61.27
26083;BME280;13848;49.018;12.078;2023-04-07T02:08:41;97680.81;;;2.21;60.61
26083;BME280;13848;49.018;12.078;2023-04-07T02:11:07;97675.81;;;2.18;61.49
26083;BME280;13848;49.018;12.078;2023-04-07T02:13:36;97675.16;;;2.16;61.31
26083;BME280;13848;49.018;12.078;2023-04-07T02:16:03;97677.31;;;2.12;61.03
26083;BME280;13848;49.018;12.078;2023-04-07T02:18:31;97675.03;;;2.09;61.44
26083;BME280;13848;49.018;12.078;2023-04-07T02:20:59;97677.00;;;2.07;61.02
26083;BME280;13848;49.018;12.078;2023-04-07T02:23:26;97665.34;;;2.08;61.18
26083;BME280;13848;49.018;12.078;2023-04-07T02:25:55;97671.03;;;2.05;61.30
26083;BME280;13848;49.018;12.078;2023-04-07T02:28:21;97660.03;;;2.08;61.43
26083;BME280;13848;49.018;12.078;2023-04-07T02:30:47;97665.72;;;2.05;61.49
26083;BME280;13848;49.018;12.078;2023-04-07T02:33:13;97665.22;;;1.93;61.71
26083;BME280;13848;49.018;12.078;2023-04-07T02:35:39;97668.34;;;1.97;61.55
26083;BME280;13848;49.018;12.078;2023-04-07T02:38:06;97668.34;;;1.97;61.69
26083;BME280;13848;49.018;12.078;2023-04-07T02:40:32;97659.72;;;1.95;61.72
26083;BME280;13848;49.018;12.078;2023-04-07T02:42:58;97656.06;;;1.96;61.60
26083;BME280;13848;49.018;12.078;2023-04-07T02:45:24;97650.75;;;1.96;62.33
26083;BME280;13848;49.018;12.078;2023-04-07T02:47:50;97648.44;;;1.93;62.69
26083;BME280;13848;49.018;12.078;2023-04-07T02:50:15;97651.94;;;1.93;62.67
26083;BME280;13848;49.018;12.078;2023-04-07T02:52:41;97655.41;;;1.85;62.46
26083;BME280;13848;49.018;12.078;2023-04-07T02:55:09;97646.47;;;1.86;62.62
26083;BME280;13848;49.018;12.078;2023-04-07T02:57:35;97649.78;;;1.89;62.65
26083;BME280;13848;49.018;12.078;2023-04-07T03:00:01;97645.13;;;1.82;62.27
26083;BME280;13848;49.018;12.078;2023-04-07T03:02:27;97651.09;;;1.84;62.29
26083;BME280;13848;49.018;12.078;2023-04-07T03:04:53;97652.09;;;1.83;63.17
26083;BME280;13848;49.018;12.078;2023-04-07T03:07:19;97645.97;;;1.75;63.11
26083;BME280;13848;49.018;12.078;2023-04-07T03:09:45;97642.97;;;1.78;61.58
26083;BME280;13848;49.018;12.078;2023-04-07T03:12:12;97645.31;;;1.81;62.45
26083;BME280;13848;49.018;12.078;2023-04-07T03:14:38;97643.94;;;1.85;62.58
26083;BME280;13848;49.018;12.078;2023-04-07T03:17:04;97636.66;;;1.87;62.74
26083;BME280;13848;49.018;12.078;2023-04-07T03:19:30;97637.47;;;1.79;63.29
26083;BME280;13848;49.018;12.078;2023-04-07T03:21:56;97640.47;;;1.76;62.66
26083;BME280;13848;49.018;12.078;2023-04-07T03:24:22;97641.97;;;1.79;62.84
26083;BME280;13848;49.018;12.078;2023-04-07T03:26:48;97645.16;;;1.74;62.43
26083;BME280;13848;49.018;12.078;2023-04-07T03:29:15;97639.81;;;1.74;62.83
26083;BME280;13848;49.018;12.078;2023-04-07T03:31:41;97640.47;;;1.76;62.41
26083;BME280;13848;49.018;12.078;2023-04-07T03:34:07;97639.50;;;1.69;63.39
26083;BME280;13848;49.018;12.078;2023-04-07T03:36:33;97635.31;;;1.67;63.17
26083;BME280;13848;49.018;12.078;2023-04-07T03:38:59;97636.66;;;1.54;62.67
26083;BME280;13848;49.018;12.078;2023-04-07T03:41:24;97632.66;;;1.67;63.03
26083;BME280;13848;49.018;12.078;2023-04-07T03:43:50;97633.34;;;1.69;62.90
26083;BME280;13848;49.018;12.078;2023-04-07T03:46:19;97638.47;;;1.62;63.30
26083;BME280;13848;49.018;12.078;2023-04-07T03:48:45;97635.16;;;1.60;62.16
26083;BME280;13848;49.018;12.078;2023-04-07T03:51:11;97637.34;;;1.65;62.63
26083;BME280;13848;49.018;12.078;2023-04-07T03:53:37;97636.97;;;1.68;63.36
26083;BME280;13848;49.018;12.078;2023-04-07T03:56:03;97630.03;;;1.58;62.68
26083;BME280;13848;49.018;12.078;2023-04-07T03:58:29;97633.19;;;1.70;61.96
26083;BME280;13848;49.018;12.078;2023-04-07T04:00:55;97632.53;;;1.68;62.70
26083;BME280;13848;49.018;12.078;2023-04-07T04:03:22;97634.03;;;1.63;62.73
26083;BME280;13848;49.018;12.078;2023-04-07T04:05:48;97643.50;;;1.57;63.05
26083;BME280;13848;49.018;12.078;2023-04-07T04:08:14;97636.34;;;1.57;62.83
26083;BME280;13848;49.018;12.078;2023-04-07T04:10:40;97634.84;;;1.63;62.94
26083;BME280;13848;49.018;12.078;2023-04-07T04:13:06;97626.53;;;1.66;62.84
26083;BME280;13848;49.018;12.078;2023-04-07T04:15:32;97627.72;;;1.64;63.45
26083;BME280;13848;49.018;12.078;2023-04-07T04:17:58;97626.03;;;1.46;63.20
26083;BME280;13848;49.018;12.078;2023-04-07T04:20:25;97625.88;;;1.40;63.75
26083;BME280;13848;49.018;12.078;2023-04-07T04:22:51;97620.41;;;1.41;63.58
26083;BME280;13848;49.018;12.078;2023-04-07T04:25:17;97625.53;;;1.43;64.20
26083;BME280;13848;49.018;12.078;2023-04-07T04:27:43;97628.34;;;1.49;63.68
26083;BME280;13848;49.018;12.078;2023-04-07T04:30:09;97628.88;;;1.53;63.64
26083;BME280;13848;49.018;12.078;2023-04-07T04:32:35;97621.56;;;1.55;63.92
26083;BME280;13848;49.018;12.078;2023-04-07T04:35:01;97629.53;;;1.55;64.02
26083;BME280;13848;49.018;12.078;2023-04-07T04:37:28;97618.56;;;1.50;63.71
26083;BME280;13848;49.018;12.078;2023-04-07T04:39:54;97624.19;;;1.39;64.47
26083;BME280;13848;49.018;12.078;2023-04-07T04:42:20;97622.38;;;1.47;63.88
26083;BME280;13848;49.018;12.078;2023-04-07T04:44:46;97625.03;;;1.47;64.98
26083;BME280;13848;49.018;12.078;2023-04-07T04:47:12;97620.41;;;1.41;64.77
26083;BME280;13848;49.018;12.078;2023-04-07T04:49:38;97624.72;;;1.34;64.57
26083;BME280;13848;49.018;12.078;2023-04-07T04:52:04;97625.84;;;1.31;65.52
26083;BME280;13848;49.018;12.078;2023-04-07T04:54:31;97623.38;;;1.30;65.26
26083;BME280;13848;49.018;12.078;2023-04-07T04:56:57;97625.03;;;1.31;65.22
26083;BME280;13848;49.018;12.078;2023-04-07T04:59:24;97619.72;;;1.31;65.71
26083;BME280;13848;49.018;12.078;2023-04-07T05:01:50;97621.88;;;1.27;65.16
26083;BME280;13848;49.018;12.078;2023-04-07T05:04:16;97620.22;;;1.35;65.37
26083;BME280;13848;49.018;12.078;2023-04-07T05:06:42;97620.22;;;1.35;65.54
26083;BME280;13848;49.018;12.078;2023-04-07T05:09:08;97617.25;;;1.29;65.61
26083;BME280;13848;49.018;12.078;2023-04-07T05:11:36;97609.59;;;1.35;65.87
26083;BME280;13848;49.018;12.078;2023-04-07T05:14:02;97615.91;;;1.42;65.54
26083;BME280;13848;49.018;12.078;2023-04-07T05:16:28;97612.75;;;1.46;65.63
26083;BME280;13848;49.018;12.078;2023-04-07T05:18:53;97611.59;;;1.49;65.63
26083;BME280;13848;49.018;12.078;2023-04-07T05:21:19;97614.94;;;1.51;64.20
26083;BME280;13848;49.018;12.078;2023-04-07T05:23:45;97615.91;;;1.66;64.21
26083;BME280;13848;49.018;12.078;2023-04-07T05:26:11;97621.53;;;1.71;64.57
26083;BME280;13848;49.018;12.078;2023-04-07T05:28:38;97617.56;;;1.75;64.43
26083;BME280;13848;49.018;12.078;2023-04-07T05:31:04;97619.38;;;1.83;64.55
26083;BME280;13848;49.018;12.078;2023-04-07T05:33:30;97627.50;;;1.98;64.60
26083;BME280;13848;49.018;12.078;2023-04-07T05:35:56;97622.44;;;2.19;63.79
26083;BME280;13848;49.018;12.078;2023-04-07T05:38:22;97626.13;;;2.18;64.36
26083;BME280;13848;49.018;12.078;2023-04-07T05:40:48;97626.13;;;2.26;64.02
26083;BME280;13848;49.018;12.078;2023-04-07T05:43:14;97630.38;;;2.35;64.31
26083;BME280;13848;49.018;12.078;2023-04-07T05:45:41;97617.22;;;2.42;64.16
26083;BME280;13848;49.018;12.078;2023-04-07T05:48:07;97616.03;;;2.53;64.08
26083;BME280;13848;49.018;12.078;2023-04-07T05:50:33;97616.84;;;2.61;64.06
26083;BME280;13848;49.018;12.078;2023-04-07T05:52:59;97621.22;;;2.85;63.38
26083;BME280;13848;49.018;12.078;2023-04-07T05:55:25;97618.16;;;2.97;62.87
26083;BME280;13848;49.018;12.078;2023-04-07T05:57:51;97620.44;;;3.00;62.91
26083;BME280;13848;49.018;12.078;2023-04-07T06:00:17;97616.34;;;3.20;62.37
26083;BME280;13848;49.018;12.078;2023-04-07T06:02:45;97621.81;;;3.41;62.39
26083;BME280;13848;49.018;12.078;2023-04-07T06:05:11;97629.06;;;3.56;61.34
26083;BME280;13848;49.018;12.078;2023-04-07T06:07:37;97624.06;;;3.76;61.44
26083;BME280;13848;49.018;12.078;2023-04-07T06:10:03;97632.75;;;3.92;60.87
26083;BME280;13848;49.018;12.078;2023-04-07T06:12:29;97630.28;;;3.68;60.10
26083;BME280;13848;49.018;12.078;2023-04-07T06:14:55;97622.97;;;3.85;60.64
26083;BME280;13848;49.018;12.078;2023-04-07T06:17:21;97621.78;;;3.87;59.41
26083;BME280;13848;49.018;12.078;2023-04-07T06:19:48;97632.56;;;3.33;59.78
26083;BME280;13848;49.018;12.078;2023-04-07T06:22:14;97629.06;;;3.33;59.80
26083;BME280;13848;49.018;12.078;2023-04-07T06:24:40;97621.25;;;3.54;59.16
26083;BME280;13848;49.018;12.078;2023-04-07T06:27:06;97628.84;;;3.65;58.88
26083;BME280;13848;49.018;12.078;2023-04-07T06:29:33;97622.59;;;3.88;59.90
26083;BME280;13848;49.018;12.078;2023-04-07T06:31:59;97627.72;;;4.12;58.52
26083;BME280;13848;49.018;12.078;2023-04-07T06:34:25;97627.19;;;4.32;58.13
26083;BME280;13848;49.018;12.078;2023-04-07T06:36:52;97621.63;;;4.63;57.48
26083;BME280;13848;49.018;12.078;2023-04-07T06:39:18;97603.97;;;4.76;57.20
26083;BME280;13848;49.018;12.078;2023-04-07T06:41:44;97621.91;;;4.83;55.40
26083;BME280;13848;49.018;12.078;2023-04-07T06:44:10;97622.94;;;4.67;55.38
26083;BME280;13848;49.018;12.078;2023-04-07T06:46:36;97622.75;;;3.94;57.06
26083;BME280;13848;49.018;12.078;2023-04-07T06:49:02;97622.22;;;4.43;57.46
26083;BME280;13848;49.018;12.078;2023-04-07T06:51:28;97622.38;;;4.57;56.25
26083;BME280;13848;49.018;12.078;2023-04-07T06:53:55;97614.72;;;4.83;56.96
26083;BME280;13848;49.018;12.078;2023-04-07T06:56:23;97614.91;;;5.18;55.30
26083;BME280;13848;49.018;12.078;2023-04-07T06:58:48;97621.72;;;5.42;54.50
26083;BME280;13848;49.018;12.078;2023-04-07T07:01:14;97613.44;;;5.37;53.96
26083;BME280;13848;49.018;12.078;2023-04-07T07:03:40;97611.66;;;5.65;54.47
26083;BME280;13848;49.018;12.078;2023-04-07T07:06:06;97611.28;;;5.68;54.72
26083;BME280;13848;49.018;12.078;2023-04-07T07:08:32;97607.59;;;5.69;54.12
26083;BME280;13848;49.018;12.078;2023-04-07T07:11:00;97613.22;;;6.02;53.91
26083;BME280;13848;49.018;12.078;2023-04-07T07:13:26;97618.38;;;6.32;53.18
26083;BME280;13848;49.018;12.078;2023-04-07T07:15:52;97618.47;;;6.45;53.39
26083;BME280;13848;49.018;12.078;2023-04-07T07:18:18;97614.47;;;6.69;51.91
26083;BME280;13848;49.018;12.078;2023-04-07T07:20:44;97612.78;;;6.61;53.22
26083;BME280;13848;49.018;12.078;2023-04-07T07:23:10;97613.00;;;6.66;52.67
26083;BME280;13848;49.018;12.078;2023-04-07T07:25:36;97617.06;;;6.97;51.60
26083;BME280;13848;49.018;12.078;2023-04-07T07:28:03;97618.59;;;7.19;51.30
26083;BME280;13848;49.018;12.078;2023-04-07T07:30:29;97616.53;;;6.67;51.35
26083;BME280;13848;49.018;12.078;2023-04-07T07:32:56;97618.75;;;7.11;51.87
26083;BME280;13848;49.018;12.078;2023-04-07T07:35:23;97626.69;;;7.39;49.83
26083;BME280;13848;49.018;12.078;2023-04-07T07:37:49;97622.97;;;7.54;50.35
26083;BME280;13848;49.018;12.078;2023-04-07T07:40:14;97618.09;;;7.90;49.49
26083;BME280;13848;49.018;12.078;2023-04-07T07:42:40;97615.19;;;7.98;49.78
26083;BME280;13848;49.018;12.078;2023-04-07T07:45:08;97622.13;;;7.27;49.39
26083;BME280;13848;49.018;12.078;2023-04-07T07:47:34;97622.72;;;6.68;50.33
26083;BME280;13848;49.018;12.078;2023-04-07T07:50:00;97622.50;;;7.17;50.75
26083;BME280;13848;49.018;12.078;2023-04-07T07:52:26;97618.28;;;7.76;49.21
26083;BME280;13848;49.018;12.078;2023-04-07T07:54:52;97614.34;;;8.11;50.53
26083;BME280;13848;49.018;12.078;2023-04-07T07:57:18;97615.94;;;8.65;49.86
26083;BME280;13848;49.018;12.078;2023-04-07T07:59:44;97612.00;;;8.68;49.69
26083;BME280;13848;49.018;12.078;2023-04-07T08:02:11;97613.16;;;8.92;47.97
26083;BME280;13848;49.018;12.078;2023-04-07T08:04:37;97609.44;;;8.99;47.53
26083;BME280;13848;49.018;12.078;2023-04-07T08:07:03;97613.25;;;9.23;48.22
26083;BME280;13848;49.018;12.078;2023-04-07T08:09:29;97607.09;;;9.48;46.96
26083;BME280;13848;49.018;12.078;2023-04-07T08:11:55;97607.03;;;9.54;46.87
26083;BME280;13848;49.018;12.078;2023-04-07T08:14:21;97604.59;;;9.53;47.16
26083;BME280;13848;49.018;12.078;2023-04-07T08:16:47;97607.00;;;9.93;47.47
26083;BME280;13848;49.018;12.078;2023-04-07T08:19:15;97612.69;;;10.53;47.57
26083;BME280;13848;49.018;12.078;2023-04-07T08:21:41;97611.44;;;10.74;46.10
26083;BME280;13848;49.018;12.078;2023-04-07T08:24:08;97608.94;;;10.54;44.81
26083;BME280;13848;49.018;12.078;2023-04-07T08:26:34;97611.03;;;10.70;44.71
26083;BME280;13848;49.018;12.078;2023-04-07T08:29:00;97606.78;;;10.81;43.48
26083;BME280;13848;49.018;12.078;2023-04-07T08:31:26;97603.09;;;10.38;43.78
26083;BME280;13848;49.018;12.078;2023-04-07T08:33:52;97604.59;;;10.53;45.57
26083;BME280;13848;49.018;12.078;2023-04-07T08:36:19;97604.84;;;10.70;44.86
26083;BME280;13848;49.018;12.078;2023-04-07T08:38:45;97590.88;;;11.39;46.56
26083;BME280;13848;49.018;12.078;2023-04-07T08:41:12;97598.41;;;11.79;45.34
26083;BME280;13848;49.018;12.078;2023-04-07T08:43:41;97595.44;;;11.69;44.26
26083;BME280;13848;49.018;12.078;2023-04-07T08:46:09;97591.53;;;11.65;43.31
26083;BME280;13848;49.018;12.078;2023-04-07T08:48:37;97590.59;;;11.89;44.05
26083;BME280;13848;49.018;12.078;2023-04-07T08:51:04;97585.81;;;11.73;41.12
26083;BME280;13848;49.018;12.078;2023-04-07T08:53:37;97590.59;;;11.89;41.70
26083;BME280;13848;49.018;12.078;2023-04-07T08:56:06;97596.47;;;12.10;41.96
26083;BME280;13848;49.018;12.078;2023-04-07T08:58:32;97596.59;;;12.03;41.24
26083;BME280;13848;49.018;12.078;2023-04-07T09:01:00;97594.31;;;11.88;43.59
26083;BME280;13848;49.018;12.078;2023-04-07T09:03:26;97596.72;;;12.55;41.83
26083;BME280;13848;49.018;12.078;2023-04-07T09:05:52;97596.94;;;12.77;41.33
26083;BME280;13848;49.018;12.078;2023-04-07T09:08:18;97590.63;;;12.36;40.19
26083;BME280;13848;49.018;12.078;2023-04-07T09:10:46;97591.31;;;12.55;41.20
26083;BME280;13848;49.018;12.078;2023-04-07T09:13:12;97592.38;;;13.18;42.30
26083;BME280;13848;49.018;12.078;2023-04-07T09:15:38;97587.44;;;13.72;39.45
26083;BME280;13848;49.018;12.078;2023-04-07T09:18:03;97587.91;;;13.52;38.81
26083;BME280;13848;49.018;12.078;2023-04-07T09:20:57;97595.69;;;13.48;40.00
26083;BME280;13848;49.018;12.078;2023-04-07T09:23:30;97585.09;;;13.47;39.76
26083;BME280;13848;49.018;12.078;2023-04-07T09:25:59;97577.78;;;13.93;37.94
26083;BME280;13848;49.018;12.078;2023-04-07T09:28:37;97575.38;;;14.30;38.23
26083;BME280;13848;49.018;12.078;2023-04-07T09:31:05;97582.63;;;14.24;36.34
26083;BME280;13848;49.018;12.078;2023-04-07T09:33:32;97570.69;;;14.08;36.61
26083;BME280;13848;49.018;12.078;2023-04-07T09:35:58;97569.72;;;13.64;38.25
26083;BME280;13848;49.018;12.078;2023-04-07T09:38:32;97573.91;;;13.72;37.99
26083;BME280;13848;49.018;12.078;2023-04-07T09:41:05;97570.56;;;13.98;38.65
26083;BME280;13848;49.018;12.078;2023-04-07T09:43:32;97571.81;;;14.46;38.48
26083;BME280;13848;49.018;12.078;2023-04-07T09:46:06;97569.44;;;14.88;36.63
26083;BME280;13848;49.018;12.078;2023-04-07T09:48:32;97556.53;;;15.23;37.82
26083;BME280;13848;49.018;12.078;2023-04-07T09:51:04;97552.59;;;14.86;36.53
26083;BME280;13848;49.018;12.078;2023-04-07T09:53:40;97563.31;;;15.20;35.62
26083;BME280;13848;49.018;12.078;2023-04-07T09:56:09;97561.84;;;14.13;36.03
26083;BME280;13848;49.018;12.078;2023-04-07T09:58:37;97560.00;;;14.52;36.87
26083;BME280;13848;49.018;12.078;2023-04-07T10:01:03;97559.81;;;14.42;35.63
26083;BME280;13848;49.018;12.078;2023-04-07T10:03:31;97555.75;;;14.06;36.51
26083;BME280;13848;49.018;12.078;2023-04-07T10:05:58;97552.22;;;14.05;36.18
26083;BME280;13848;49.018;12.078;2023-04-07T10:08:25;97552.31;;;13.77;36.14
26083;BME280;13848;49.018;12.078;2023-04-07T10:10:51;97556.38;;;13.46;36.51
26083;BME280;13848;49.018;12.078;2023-04-07T10:13:19;97558.88;;;14.15;35.45
26083;BME280;13848;49.018;12.078;2023-04-07T10:15:46;97548.25;;;14.30;36.05
26083;BME280;13848;49.018;12.078;2023-04-07T10:18:13;97541.41;;;14.83;35.04
26083;BME280;13848;49.018;12.078;2023-04-07T10:20:40;97539.50;;;15.27;33.86
26083;BME280;13848;49.018;12.078;2023-04-07T10:23:12;97543.56;;;15.30;33.67
26083;BME280;13848;49.018;12.078;2023-04-07T10:25:41;97537.06;;;14.82;33.60
26083;BME280;13848;49.018;12.078;2023-04-07T10:28:09;97541.94;;;14.80;33.25
26083;BME280;13848;49.018;12.078;2023-04-07T10:30:39;97536.78;;;15.81;31.89
26083;BME280;13848;49.018;12.078;2023-04-07T10:33:05;97537.91;;;16.22;30.68
26083;BME280;13848;49.018;12.078;2023-04-07T10:36:02;97536.22;;;16.16;31.99
26083;BME280;13848;49.018;12.078;2023-04-07T10:38:28;97534.69;;;16.73;32.97
26083;BME280;13848;49.018;12.078;2023-04-07T10:40:54;97531.84;;;17.10;33.03
26083;BME280;13848;49.018;12.078;2023-04-07T10:43:36;97533.50;;;17.11;31.22
26083;BME280;13848;49.018;12.078;2023-04-07T10:46:04;97528.81;;;16.96;31.77
26083;BME280;13848;49.018;12.078;2023-04-07T10:48:30;97526.25;;;16.74;30.98
26083;BME280;13848;49.018;12.078;2023-04-07T10:51:15;97534.28;;;15.75;31.51
26083;BME280;13848;49.018;12.078;2023-04-07T10:57:13;97526.03;;;16.39;30.81
26083;BME280;13848;49.018;12.078;2023-04-07T10:59:41;97529.66;;;15.48;31.70
26083;BME280;13848;49.018;12.078;2023-04-07T11:02:31;97525.50;;;16.00;30.97
26083;BME280;13848;49.018;12.078;2023-04-07T11:04:57;97525.53;;;16.42;31.26
26083;BME280;13848;49.018;12.078;2023-04-07T11:07:48;97515.97;;;16.87;31.15
26083;BME280;13848;49.018;12.078;2023-04-07T11:10:15;97524.84;;;16.19;30.60
26083;BME280;13848;49.018;12.078;2023-04-07T11:12:41;97519.97;;;16.27;31.12
26083;BME280;13848;49.018;12.078;2023-04-07T11:15:18;97515.78;;;15.72;31.08
26083;BME280;13848;49.018;12.078;2023-04-07T11:17:46;97512.28;;;16.13;31.57
26083;BME280;13848;49.018;12.078;2023-04-07T11:20:12;97512.66;;;15.90;30.85
26083;BME280;13848;49.018;12.078;2023-04-07T11:22:37;97512.28;;;15.49;31.58
26083;BME280;13848;49.018;12.078;2023-04-07T11:25:19;97507.94;;;14.99;31.43
26083;BME280;13848;49.018;12.078;2023-04-07T11:27:45;97502.75;;;15.20;31.15
26083;BME280;13848;49.018;12.078;2023-04-07T11:30:12;97509.75;;;15.69;31.41
26083;BME280;13848;49.018;12.078;2023-04-07T11:32:38;97511.00;;;14.81;31.48
26083;BME280;13848;49.018;12.078;2023-04-07T11:35:06;97504.44;;;15.26;31.98
26083;BME280;13848;49.018;12.078;2023-04-07T11:37:33;97510.16;;;15.56;31.81
26083;BME280;13848;49.018;12.078;2023-04-07T11:39:58;97503.16;;;15.60;30.57
26083;BME280;13848;49.018;12.078;2023-04-07T11:42:31;97506.72;;;15.98;31.49
26083;BME280;13848;49.018;12.078;2023-04-07T11:44:57;97501.38;;;16.56;31.30
26083;BME280;13848;49.018;12.078;2023-04-07T11:47:33;97505.66;;;16.41;30.34
26083;BME280;13848;49.018;12.078;2023-04-07T11:49:59;97494.81;;;16.04;29.35
26083;BME280;13848;49.018;12.078;2023-04-07T11:52:26;97507.44;;;14.20;30.78
26083;BME280;13848;49.018;12.078;2023-04-07T11:54:52;97514.16;;;14.73;30.95
26083;BME280;13848;49.018;12.078;2023-04-07T11:57:23;97500.03;;;15.20;31.31
26083;BME280;13848;49.018;12.078;2023-04-07T11:59:50;97493.47;;;15.15;31.04
26083;BME280;13848;49.018;12.078;2023-04-07T12:02:29;97502.16;;;14.30;31.69
26083;BME280;13848;49.018;12.078;2023-04-07T12:04:55;97490.44;;;14.63;31.84
26083;BME280;13848;49.018;12.078;2023-04-07T12:07:21;97495.38;;;14.93;31.98
26083;BME280;13848;49.018;12.078;2023-04-07T12:09:48;97485.63;;;14.70;31.38
26083;BME280;13848;49.018;12.078;2023-04-07T12:12:24;97495.25;;;14.83;31.51
26083;BME280;13848;49.018;12.078;2023-04-07T12:14:50;97486.34;;;15.09;32.15
26083;BME280;13848;49.018;12.078;2023-04-07T12:17:19;97484.66;;;15.03;30.91
26083;BME280;13848;49.018;12.078;2023-04-07T12:19:45;97484.84;;;15.51;32.13
26083;BME280;13848;49.018;12.078;2023-04-07T12:22:11;97486.56;;;15.62;31.32
26083;BME280;13848;49.018;12.078;2023-04-07T12:24:37;97482.38;;;15.49;31.19
26083;BME280;13848;49.018;12.078;2023-04-07T12:27:04;97492.72;;;15.52;30.70
26083;BME280;13848;49.018;12.078;2023-04-07T12:29:30;97497.81;;;15.43;30.64
26083;BME280;13848;49.018;12.078;2023-04-07T12:31:56;97492.47;;;15.54;30.75
26083;BME280;13848;49.018;12.078;2023-04-07T12:34:22;97490.59;;;15.54;30.07
26083;BME280;13848;49.018;12.078;2023-04-07T12:36:48;97502.34;;;14.62;31.13
26083;BME280;13848;49.018;12.078;2023-04-07T12:39:15;97498.66;;;14.95;31.51
26083;BME280;13848;49.018;12.078;2023-04-07T12:41:41;97489.06;;;15.09;31.02
26083;BME280;13848;49.018;12.078;2023-04-07T12:44:08;97491.97;;;14.20;31.95
26083;BME280;13848;49.018;12.078;2023-04-07T12:46:34;97492.38;;;14.68;32.12
26083;BME280;13848;49.018;12.078;2023-04-07T12:49:00;97490.03;;;14.54;31.22
26083;BME280;13848;49.018;12.078;2023-04-07T12:51:26;97483.78;;;14.76;32.09
26083;BME280;13848;49.018;12.078;2023-04-07T12:53:52;97488.44;;;15.02;31.18
26083;BME280;13848;49.018;12.078;2023-04-07T12:56:18;97488.03;;;15.15;31.87
26083;BME280;13848;49.018;12.078;2023-04-07T12:58:44;97483.88;;;14.42;32.36
26083;BME280;13848;49.018;12.078;2023-04-07T13:01:11;97481.47;;;14.84;32.65
26083;BME280;13848;49.018;12.078;2023-04-07T13:03:37;97477.47;;;15.46;32.42